createdAt,value
2023-02-22T00:01:02.941Z,7.33
2023-02-22T00:03:33.212Z,8.43
2023-02-22T00:06:04.242Z,6.53
2023-02-22T00:08:35.859Z,6.83
2023-02-22T00:11:08.384Z,6.00
2023-02-22T00:13:36.798Z,5.37
2023-02-22T00:16:05.572Z,7.77
2023-02-22T00:18:33.521Z,7.83
2023-02-22T00:21:02.095Z,5.97
2023-02-22T00:23:31.819Z,7.63
2023-02-22T00:26:01.898Z,6.50
2023-02-22T00:28:30.719Z,6.20
2023-02-22T00:30:59.761Z,6.97
2023-02-22T00:33:27.726Z,5.47
2023-02-22T00:35:55.689Z,7.17
2023-02-22T00:38:23.794Z,7.80
2023-02-22T00:40:52.039Z,6.90
2023-02-22T00:43:21.377Z,9.23
2023-02-22T00:45:50.122Z,5.93
2023-02-22T00:48:19.505Z,5.93
2023-02-22T00:50:48.536Z,8.00
2023-02-22T00:53:17.408Z,6.80
2023-02-22T00:55:45.301Z,4.80
2023-02-22T00:58:13.617Z,8.50
2023-02-22T01:00:44.023Z,6.67
2023-02-22T01:03:15.003Z,6.60
2023-02-22T01:05:43.858Z,5.53
2023-02-22T01:08:13.383Z,5.17
2023-02-22T01:10:42.032Z,7.60
2023-02-22T01:13:12.840Z,7.43
2023-02-22T01:15:45.232Z,6.03
2023-02-22T01:18:17.166Z,6.97
2023-02-22T01:20:47.851Z,5.13
2023-02-22T01:23:17.626Z,5.00
2023-02-22T01:25:45.655Z,5.03
2023-02-22T01:28:15.584Z,6.00
2023-02-22T01:30:44.913Z,4.70
2023-02-22T01:33:13.752Z,6.87
2023-02-22T01:35:41.772Z,5.13
2023-02-22T01:38:10.713Z,6.80
2023-02-22T01:40:42.742Z,5.70
2023-02-22T01:43:20.330Z,4.60
2023-02-22T01:45:57.806Z,4.80
2023-02-22T01:48:31.639Z,4.70
2023-02-22T01:51:10.532Z,3.67
2023-02-22T01:53:46.288Z,6.03
2023-02-22T01:56:15.676Z,6.83
2023-02-22T01:58:47.761Z,6.00
2023-02-22T02:01:19.257Z,4.30
2023-02-22T02:03:49.098Z,6.77
2023-02-22T02:06:19.885Z,4.07
2023-02-22T02:08:58.707Z,5.20
2023-02-22T02:11:27.882Z,4.50
2023-02-22T02:14:00.039Z,5.40
2023-02-22T02:16:38.925Z,4.10
2023-02-22T02:19:14.752Z,4.00
2023-02-22T02:22:11.198Z,8.23
2023-02-22T02:25:38.157Z,4.83
2023-02-22T02:28:28.178Z,3.27
2023-02-22T02:31:22.637Z,4.97
2023-02-22T02:33:58.010Z,3.90
2023-02-22T02:36:32.695Z,4.83
2023-02-22T02:39:08.371Z,3.53
2023-02-22T02:41:40.337Z,6.53
2023-02-22T02:44:15.739Z,8.87
2023-02-22T02:46:50.384Z,4.67
2023-02-22T02:49:23.758Z,5.40
2023-02-22T02:51:55.660Z,5.03
2023-02-22T02:54:24.244Z,5.10
2023-02-22T02:56:53.689Z,4.17
2023-02-22T02:59:27.802Z,4.93
2023-02-22T03:02:13.123Z,3.87
2023-02-22T03:04:56.281Z,6.60
2023-02-22T03:07:34.130Z,5.00
2023-02-22T03:10:13.955Z,5.00
2023-02-22T03:12:48.797Z,7.13
2023-02-22T03:15:28.818Z,6.47
2023-02-22T03:18:03.443Z,4.37
2023-02-22T03:20:43.113Z,7.50
2023-02-22T03:23:19.501Z,4.83
2023-02-22T03:25:54.968Z,5.47
2023-02-22T03:28:27.318Z,4.17
2023-02-22T03:31:00.817Z,4.97
2023-02-22T03:33:36.270Z,5.60
2023-02-22T03:36:13.322Z,6.27
2023-02-22T03:38:44.801Z,5.03
2023-02-22T03:41:18.465Z,3.70
2023-02-22T03:43:56.729Z,5.23
2023-02-22T03:46:26.170Z,4.37
2023-02-22T03:49:00.956Z,4.13
2023-02-22T03:51:35.836Z,6.03
2023-02-22T03:54:04.795Z,4.03
2023-02-22T03:56:47.098Z,4.47
2023-02-22T03:59:15.877Z,6.37
2023-02-22T04:01:45.048Z,4.30
2023-02-22T04:04:12.991Z,5.60
2023-02-22T04:06:42.347Z,7.20
2023-02-22T04:09:10.408Z,6.03
2023-02-22T04:11:38.286Z,5.70
2023-02-22T04:14:06.236Z,7.97
2023-02-22T04:16:34.243Z,6.90
2023-02-22T04:19:02.529Z,4.00
2023-02-22T04:21:30.675Z,5.53
2023-02-22T04:24:01.413Z,4.77
2023-02-22T04:26:29.446Z,4.67
2023-02-22T04:28:59.609Z,7.27
2023-02-22T04:31:34.863Z,4.40
2023-02-22T04:34:03.992Z,4.63
2023-02-22T04:36:35.789Z,6.53
2023-02-22T04:39:06.155Z,5.50
2023-02-22T04:41:34.500Z,5.17
2023-02-22T04:44:02.520Z,5.77
2023-02-22T04:46:32.330Z,5.80
2023-02-22T04:49:00.623Z,5.60
2023-02-22T04:51:31.452Z,4.70
2023-02-22T04:54:07.134Z,5.77
2023-02-22T04:56:37.618Z,5.10
2023-02-22T04:59:07.030Z,5.03
2023-02-22T05:01:36.571Z,5.63
2023-02-22T05:04:05.707Z,5.93
2023-02-22T05:06:33.833Z,5.93
2023-02-22T05:09:01.691Z,6.80
2023-02-22T05:11:30.998Z,7.70
2023-02-22T05:13:58.892Z,5.47
2023-02-22T05:16:26.896Z,6.90
2023-02-22T05:18:54.771Z,7.20
2023-02-22T05:21:23.534Z,6.73
2023-02-22T05:23:51.471Z,8.03
2023-02-22T05:26:19.665Z,5.37
2023-02-22T05:28:48.952Z,6.30
2023-02-22T05:31:17.562Z,5.50
2023-02-22T05:33:45.684Z,5.83
2023-02-22T05:36:13.616Z,8.83
2023-02-22T05:38:43.375Z,6.60
2023-02-22T05:41:12.333Z,5.67
2023-02-22T05:43:40.732Z,11.13
2023-02-22T05:46:10.078Z,6.60
2023-02-22T05:48:38.107Z,7.47
2023-02-22T05:51:06.665Z,6.87
2023-02-22T05:53:34.805Z,8.93
2023-02-22T05:56:02.700Z,7.37
2023-02-22T05:58:30.618Z,8.10
2023-02-22T06:00:58.636Z,7.67
2023-02-22T06:03:27.996Z,6.07
2023-02-22T06:05:55.873Z,5.60
2023-02-22T06:08:23.756Z,8.40
2023-02-22T06:10:51.643Z,6.50
2023-02-22T06:13:19.598Z,6.63
2023-02-22T06:15:47.778Z,8.77
2023-02-22T06:18:15.734Z,7.03
2023-02-22T06:20:44.956Z,9.67
2023-02-22T06:23:12.829Z,6.90
2023-02-22T06:25:40.714Z,8.27
2023-02-22T06:28:08.678Z,8.57
2023-02-22T06:30:36.746Z,6.23
2023-02-22T06:33:04.745Z,5.67
2023-02-22T06:35:32.782Z,6.77
2023-02-22T06:38:02.272Z,7.67
2023-02-22T06:40:30.328Z,5.53
2023-02-22T06:42:59.931Z,8.20
2023-02-22T06:45:28.190Z,8.20
2023-02-22T06:47:56.566Z,6.60
2023-02-22T06:50:26.469Z,6.73
2023-02-22T06:52:54.838Z,9.10
2023-02-22T06:55:25.985Z,10.03
2023-02-22T06:57:54.308Z,9.27
2023-02-22T07:00:24.511Z,9.67
2023-02-22T07:02:53.024Z,7.20
2023-02-22T07:05:23.081Z,8.47
2023-02-22T07:07:53.594Z,7.17
2023-02-22T07:10:25.213Z,7.83
2023-02-22T07:12:53.439Z,10.03
2023-02-22T07:15:23.478Z,9.03
2023-02-22T07:17:51.438Z,6.83
2023-02-22T07:20:20.479Z,7.67
2023-02-22T07:22:48.693Z,8.37
2023-02-22T07:25:16.698Z,8.93
2023-02-22T07:27:46.235Z,10.87
2023-02-22T07:30:19.922Z,14.10
2023-02-22T07:32:48.495Z,6.33
2023-02-22T07:35:18.319Z,9.33
2023-02-22T07:37:47.891Z,10.40
2023-02-22T07:40:17.883Z,8.77
2023-02-22T07:42:55.392Z,9.70
2023-02-22T07:45:23.998Z,10.67
2023-02-22T07:47:52.445Z,8.07
2023-02-22T07:50:21.964Z,11.53
2023-02-22T07:52:51.567Z,10.13
2023-02-22T07:55:21.554Z,12.77
2023-02-22T07:57:51.567Z,16.90
2023-02-22T08:00:26.858Z,10.10
2023-02-22T08:02:55.434Z,13.70
2023-02-22T08:05:25.554Z,8.77
2023-02-22T08:07:53.696Z,13.80
2023-02-22T08:10:24.074Z,10.63
2023-02-22T08:12:53.184Z,11.30
2023-02-22T08:15:25.996Z,10.87
2023-02-22T08:17:54.401Z,13.33
2023-02-22T08:20:22.767Z,13.20
2023-02-22T08:22:52.287Z,14.03
2023-02-22T08:25:22.099Z,14.00
2023-02-22T08:27:50.076Z,12.93
2023-02-22T08:30:21.112Z,11.07
2023-02-22T08:32:51.237Z,10.43
2023-02-22T08:35:21.130Z,14.10
2023-02-22T08:37:51.573Z,11.27
2023-02-22T08:40:22.274Z,12.17
2023-02-22T08:42:50.254Z,9.13
2023-02-22T08:45:18.642Z,9.73
2023-02-22T08:47:47.418Z,13.30
2023-02-22T08:50:20.182Z,11.83
2023-02-22T08:52:48.156Z,12.23
2023-02-22T08:55:16.033Z,9.40
2023-02-22T08:57:43.932Z,11.23
2023-02-22T09:00:13.276Z,12.10
2023-02-22T09:02:41.578Z,14.80
2023-02-22T09:05:09.824Z,10.60
2023-02-22T09:07:42.382Z,10.43
2023-02-22T09:10:12.680Z,10.50
2023-02-22T09:12:40.571Z,12.73
2023-02-22T09:15:09.220Z,12.67
2023-02-22T09:17:37.350Z,12.70
2023-02-22T09:20:06.134Z,13.13
2023-02-22T09:22:34.138Z,11.30
2023-02-22T09:25:15.959Z,10.60
2023-02-22T09:27:45.336Z,11.97
2023-02-22T09:30:19.848Z,10.70
2023-02-22T09:32:47.980Z,8.93
2023-02-22T09:35:15.958Z,8.60
2023-02-22T09:37:44.930Z,13.93
2023-02-22T09:40:25.012Z,10.07
2023-02-22T09:43:08.179Z,8.80
2023-02-22T09:45:44.971Z,10.23
2023-02-22T09:48:22.072Z,11.93
2023-02-22T09:50:53.739Z,9.03
2023-02-22T09:53:29.659Z,8.40
2023-02-22T09:56:01.367Z,8.50
2023-02-22T09:58:34.301Z,11.30
2023-02-22T10:01:20.138Z,9.27
2023-02-22T10:03:54.481Z,8.80
2023-02-22T10:06:25.255Z,9.60
2023-02-22T10:08:56.829Z,8.90
2023-02-22T10:11:38.170Z,9.07
2023-02-22T10:14:19.942Z,9.50
2023-02-22T10:16:53.254Z,8.93
2023-02-22T10:19:28.890Z,8.43
2023-02-22T10:22:08.587Z,10.50
2023-02-22T10:24:45.868Z,11.50
2023-02-22T10:27:19.899Z,6.90
2023-02-22T10:29:50.316Z,10.77
2023-02-22T10:32:25.383Z,8.47
2023-02-22T10:34:55.613Z,9.43
2023-02-22T10:37:28.439Z,9.70
2023-02-22T10:40:05.974Z,8.30
2023-02-22T10:42:35.413Z,10.20
2023-02-22T10:45:03.302Z,8.90
2023-02-22T10:47:34.410Z,11.33
2023-02-22T10:50:04.246Z,11.83
2023-02-22T10:52:34.613Z,10.27
2023-02-22T10:55:15.375Z,10.60
2023-02-22T10:57:47.915Z,11.40
2023-02-22T11:00:20.354Z,10.97
2023-02-22T11:02:54.613Z,11.00
2023-02-22T11:05:33.452Z,11.60
2023-02-22T11:08:28.911Z,10.67
2023-02-22T11:10:58.709Z,8.70
2023-02-22T11:13:30.190Z,10.03
2023-02-22T11:16:01.363Z,12.57
2023-02-22T11:18:32.737Z,12.27
2023-02-22T11:21:07.656Z,12.47
2023-02-22T11:23:37.315Z,8.23
2023-02-22T11:26:09.527Z,9.73
2023-02-22T11:28:49.175Z,11.83
2023-02-22T11:31:21.554Z,11.10
2023-02-22T11:33:53.576Z,13.30
2023-02-22T11:36:37.317Z,12.13
2023-02-22T11:39:11.475Z,11.03
2023-02-22T11:41:39.500Z,12.80
2023-02-22T11:44:24.108Z,11.03
2023-02-22T11:46:55.631Z,12.60
2023-02-22T11:49:26.172Z,9.27
2023-02-22T11:52:17.834Z,14.67
2023-02-22T11:54:55.792Z,9.97
2023-02-22T11:57:38.909Z,11.63
2023-02-22T12:00:24.633Z,14.27
2023-02-22T12:03:15.347Z,13.03
2023-02-22T12:06:12.399Z,12.47
2023-02-22T12:08:52.330Z,12.60
2023-02-22T12:11:26.086Z,11.57
2023-02-22T12:14:08.548Z,12.70
2023-02-22T12:16:55.899Z,15.17
2023-02-22T12:19:31.976Z,16.23
2023-02-22T12:22:03.351Z,11.90
2023-02-22T12:24:37.664Z,11.77
2023-02-22T12:27:10.989Z,11.33
2023-02-22T12:29:44.214Z,14.00
2023-02-22T12:32:17.456Z,10.97
2023-02-22T12:34:54.254Z,13.20
2023-02-22T12:37:27.648Z,14.33
2023-02-22T12:40:06.308Z,13.00
2023-02-22T12:42:45.250Z,11.30
2023-02-22T12:45:22.564Z,12.20
2023-02-22T12:47:58.629Z,10.47
2023-02-22T12:50:34.428Z,12.50
2023-02-22T12:53:13.936Z,10.43
2023-02-22T12:55:47.945Z,11.00
2023-02-22T12:58:25.798Z,10.17
2023-02-22T13:01:01.257Z,9.43
2023-02-22T13:03:36.462Z,11.80
2023-02-22T13:06:31.851Z,10.40
2023-02-22T13:09:14.642Z,10.47
2023-02-22T13:11:50.480Z,10.90
2023-02-22T13:14:37.222Z,11.80
2023-02-22T13:17:14.712Z,8.63
2023-02-22T13:19:51.043Z,12.70
2023-02-22T13:22:23.893Z,11.00
2023-02-22T13:25:03.347Z,11.10
2023-02-22T13:27:39.104Z,12.20
2023-02-22T13:30:15.720Z,12.90
2023-02-22T13:33:01.988Z,10.57
2023-02-22T13:36:07.397Z,13.47
2023-02-22T13:39:11.825Z,12.27
2023-02-22T13:41:56.176Z,10.83
2023-02-22T13:44:59.749Z,16.53
2023-02-22T13:47:57.793Z,15.27
2023-02-22T13:51:07.604Z,10.60
2023-02-22T13:53:54.309Z,11.90
2023-02-22T13:56:23.508Z,12.23
2023-02-22T13:58:53.542Z,11.23
2023-02-22T14:01:42.543Z,13.13
2023-02-22T14:04:37.117Z,11.27
2023-02-22T14:07:25.917Z,9.67
2023-02-22T14:09:56.482Z,14.47
2023-02-22T14:12:48.988Z,14.37
2023-02-22T14:15:29.075Z,14.90
2023-02-22T14:18:01.061Z,10.97
2023-02-22T14:20:32.084Z,14.37
2023-02-22T14:23:29.732Z,12.57
2023-02-22T14:26:12.256Z,14.53
2023-02-22T14:28:54.341Z,14.90
2023-02-22T14:31:35.562Z,13.63
2023-02-22T14:34:07.947Z,12.27
2023-02-22T14:36:45.669Z,12.73
2023-02-22T14:39:23.468Z,12.53
2023-02-22T14:42:01.410Z,15.57
2023-02-22T14:44:32.834Z,12.13
2023-02-22T14:47:05.783Z,13.80
2023-02-22T14:49:39.333Z,13.50
2023-02-22T14:52:18.565Z,13.47
2023-02-22T14:54:59.612Z,12.90
2023-02-22T14:57:38.537Z,14.87
2023-02-22T15:00:21.022Z,15.13
2023-02-22T15:02:52.246Z,23.00
2023-02-22T15:05:21.187Z,16.63
2023-02-22T15:07:55.246Z,14.83
2023-02-22T15:10:30.072Z,11.33
2023-02-22T15:13:10.961Z,12.90
2023-02-22T15:15:43.818Z,14.90
2023-02-22T15:18:24.980Z,13.13
2023-02-22T15:20:57.594Z,13.03
2023-02-22T15:23:29.630Z,14.33
2023-02-22T15:25:57.760Z,12.97
2023-02-22T15:28:30.847Z,14.57
2023-02-22T15:31:23.338Z,15.23
2023-02-22T15:33:53.025Z,13.87
2023-02-22T15:36:22.771Z,18.23
2023-02-22T15:38:51.934Z,15.00
2023-02-22T15:41:28.297Z,13.77
2023-02-22T15:44:22.683Z,13.33
2023-02-22T15:46:54.361Z,14.77
2023-02-22T15:49:24.358Z,14.40
2023-02-22T15:52:09.558Z,23.67
2023-02-22T15:54:47.287Z,14.53
2023-02-22T15:57:18.368Z,15.50
2023-02-22T15:59:52.901Z,14.87
2023-02-22T16:02:32.903Z,13.67
2023-02-22T16:05:05.132Z,18.50
2023-02-22T16:07:33.737Z,17.47
2023-02-22T16:10:08.094Z,16.10
2023-02-22T16:12:36.643Z,17.13
2023-02-22T16:15:16.679Z,15.63
2023-02-22T16:18:00.883Z,17.70
2023-02-22T16:20:35.399Z,16.43
2023-02-22T16:23:24.269Z,16.53
2023-02-22T16:26:19.910Z,17.43
2023-02-22T16:28:53.417Z,14.63
2023-02-22T16:31:25.278Z,15.73
2023-02-22T16:33:54.352Z,18.13
2023-02-22T16:36:25.937Z,17.93
2023-02-22T16:38:53.839Z,17.27
2023-02-22T16:41:21.786Z,14.27
2023-02-22T16:43:51.786Z,23.10
2023-02-22T16:46:24.301Z,17.00
2023-02-22T16:48:52.520Z,16.47
2023-02-22T16:51:24.329Z,16.43
2023-02-22T16:53:55.831Z,15.17
2023-02-22T16:56:30.786Z,16.63
2023-02-22T16:59:02.234Z,17.90
2023-02-22T17:01:35.160Z,15.53
2023-02-22T17:04:04.600Z,17.37
2023-02-22T17:06:32.544Z,16.13
2023-02-22T17:09:00.438Z,16.23
2023-02-22T17:11:28.348Z,21.27
2023-02-22T17:13:56.237Z,19.87
2023-02-22T17:16:24.264Z,22.57
2023-02-22T17:18:53.525Z,22.37
2023-02-22T17:21:21.389Z,24.37
2023-02-22T17:23:49.462Z,31.33
2023-02-22T17:26:18.367Z,33.03
2023-02-22T17:28:46.507Z,30.73
2023-02-22T17:31:21.501Z,24.60
2023-02-22T17:33:51.208Z,19.10
2023-02-22T17:36:20.755Z,20.67
2023-02-22T17:38:49.829Z,15.57
2023-02-22T17:41:17.743Z,16.07
2023-02-22T17:43:45.725Z,20.10
2023-02-22T17:46:13.750Z,19.63
2023-02-22T17:48:42.359Z,18.57
2023-02-22T17:51:12.775Z,15.93
2023-02-22T17:53:42.160Z,14.53
2023-02-22T17:56:13.249Z,14.17
2023-02-22T17:58:42.033Z,15.80
2023-02-22T18:01:21.291Z,14.47
2023-02-22T18:03:49.387Z,14.90
2023-02-22T18:06:22.646Z,14.53
2023-02-22T18:08:56.426Z,14.30
2023-02-22T18:11:26.272Z,14.77
2023-02-22T18:13:55.160Z,11.87
2023-02-22T18:16:25.432Z,14.17
2023-02-22T18:18:53.660Z,12.03
2023-02-22T18:21:21.733Z,15.50
2023-02-22T18:23:49.672Z,13.10
2023-02-22T18:26:21.227Z,11.07
2023-02-22T18:28:49.891Z,12.03
2023-02-22T18:31:19.656Z,10.93
2023-02-22T18:33:49.612Z,13.70
2023-02-22T18:36:22.547Z,13.77
2023-02-22T18:38:52.054Z,13.30
2023-02-22T18:41:25.019Z,13.07
2023-02-22T18:43:55.021Z,13.07
2023-02-22T18:46:24.507Z,11.73
2023-02-22T18:48:54.749Z,11.07
2023-02-22T18:51:23.948Z,11.73
2023-02-22T18:53:56.735Z,10.10
2023-02-22T18:56:29.703Z,13.30
2023-02-22T18:58:59.820Z,11.00
2023-02-22T19:01:28.535Z,10.00
2023-02-22T19:03:56.612Z,10.03
2023-02-22T19:06:24.597Z,13.60
2023-02-22T19:08:53.591Z,12.20
2023-02-22T19:11:23.592Z,12.17
2023-02-22T19:13:54.658Z,12.90
2023-02-22T19:16:24.435Z,12.57
2023-02-22T19:18:57.185Z,13.93
2023-02-22T19:21:26.841Z,13.03
2023-02-22T19:24:01.720Z,14.30
2023-02-22T19:26:30.179Z,15.00
2023-02-22T19:29:04.580Z,15.07
2023-02-22T19:31:34.351Z,12.00
2023-02-22T19:34:03.623Z,17.87
2023-02-22T19:36:32.513Z,16.47
2023-02-22T19:39:01.642Z,15.27
2023-02-22T19:41:30.442Z,10.97
2023-02-22T19:44:00.355Z,13.13
2023-02-22T19:46:28.364Z,13.73
2023-02-22T19:48:56.518Z,16.30
2023-02-22T19:51:28.629Z,15.13
2023-02-22T19:53:59.716Z,12.33
2023-02-22T19:56:28.398Z,11.77
2023-02-22T19:58:57.688Z,12.57
2023-02-22T20:01:29.866Z,13.40
2023-02-22T20:04:00.837Z,14.10
2023-02-22T20:06:30.570Z,27.07
2023-02-22T20:08:58.986Z,18.40
2023-02-22T20:11:28.019Z,20.70
2023-02-22T20:13:56.617Z,18.27
2023-02-22T20:16:26.307Z,13.73
2023-02-22T20:18:55.988Z,15.23
2023-02-22T20:21:28.639Z,12.50
2023-02-22T20:23:59.122Z,11.47
2023-02-22T20:26:28.741Z,20.13
2023-02-22T20:28:57.521Z,12.93
2023-02-22T20:31:29.398Z,12.17
2023-02-22T20:33:59.626Z,13.40
2023-02-22T20:36:30.863Z,14.47
2023-02-22T20:39:00.127Z,12.17
2023-02-22T20:41:30.440Z,12.90
2023-02-22T20:43:59.196Z,15.10
2023-02-22T20:46:31.425Z,12.63
2023-02-22T20:49:01.297Z,10.07
2023-02-22T20:51:30.394Z,10.77
2023-02-22T20:53:59.924Z,12.43
2023-02-22T20:56:29.872Z,11.33
2023-02-22T20:58:58.737Z,11.03
2023-02-22T21:01:28.486Z,12.53
2023-02-22T21:04:00.945Z,10.80
2023-02-22T21:06:29.579Z,11.83
2023-02-22T21:08:59.713Z,13.17
2023-02-22T21:11:30.427Z,15.33
2023-02-22T21:13:58.548Z,13.70
2023-02-22T21:16:29.549Z,13.10
2023-02-22T21:18:59.520Z,15.43
2023-02-22T21:21:29.061Z,14.60
2023-02-22T21:24:01.484Z,13.43
2023-02-22T21:26:31.278Z,12.83
2023-02-22T21:29:01.267Z,15.83
2023-02-22T21:31:31.572Z,16.00
2023-02-22T21:34:01.228Z,14.43
2023-02-22T21:36:29.842Z,15.37
2023-02-22T21:39:00.328Z,15.63
2023-02-22T21:41:31.005Z,14.83
2023-02-22T21:44:00.457Z,13.60
2023-02-22T21:46:31.198Z,15.60
2023-02-22T21:48:59.630Z,11.57
2023-02-22T21:51:31.866Z,12.67
2023-02-22T21:54:02.013Z,13.47
2023-02-22T21:56:32.407Z,14.07
2023-02-22T21:59:03.445Z,14.93
2023-02-22T22:01:35.035Z,11.83
2023-02-22T22:04:04.949Z,10.60
2023-02-22T22:06:34.742Z,12.13
2023-02-22T22:09:04.910Z,11.17
2023-02-22T22:11:32.829Z,9.90
2023-02-22T22:14:00.743Z,10.53
2023-02-22T22:16:30.226Z,12.73
2023-02-22T22:18:59.747Z,11.90
2023-02-22T22:21:27.695Z,12.50
2023-02-22T22:23:57.386Z,14.57
2023-02-22T22:26:27.296Z,11.30
2023-02-22T22:28:58.640Z,11.33
2023-02-22T22:31:27.547Z,13.23
2023-02-22T22:33:56.399Z,13.67
2023-02-22T22:36:27.485Z,13.53
2023-02-22T22:38:57.437Z,14.97
2023-02-22T22:41:28.010Z,15.17
2023-02-22T22:43:56.839Z,17.90
2023-02-22T22:46:24.943Z,17.20
2023-02-22T22:48:52.959Z,14.43
2023-02-22T22:51:21.964Z,14.10
2023-02-22T22:53:52.878Z,14.80
2023-02-22T22:56:26.308Z,11.97
2023-02-22T22:58:55.754Z,15.33
2023-02-22T23:01:27.081Z,12.33
2023-02-22T23:03:58.769Z,17.63
2023-02-22T23:06:30.802Z,14.20
2023-02-22T23:09:01.948Z,14.73
2023-02-22T23:11:33.639Z,16.13
2023-02-22T23:14:04.432Z,13.37
2023-02-22T23:16:33.259Z,13.53
2023-02-22T23:19:01.158Z,13.67
2023-02-22T23:21:29.165Z,16.60
2023-02-22T23:23:58.952Z,11.43
2023-02-22T23:26:28.349Z,14.27
2023-02-22T23:28:59.114Z,15.77
2023-02-22T23:31:28.823Z,15.53
2023-02-22T23:33:58.873Z,15.77
2023-02-22T23:36:28.020Z,14.33
2023-02-22T23:38:55.972Z,13.90
2023-02-22T23:41:25.149Z,14.63
2023-02-22T23:43:54.508Z,15.47
2023-02-22T23:46:22.498Z,15.63
2023-02-22T23:48:52.159Z,13.50
2023-02-22T23:51:25.160Z,16.43
2023-02-22T23:53:55.618Z,13.70
2023-02-22T23:56:25.694Z,11.50
2023-02-22T23:58:57.356Z,13.57
